Time;durP1;ratioP1;P1;durP2;ratioP2;P2;SDS_P1;SDS_P2;PMS_P1;PMS_P2;Temp;Humidity;BMP_temperature;BMP_pressure;BME280_temperature;BME280_humidity;BME280_pressure;Samples;Min_cycle;Max_cycle;Signal;HPM_P1;HPM_P2
2021/04/01 00:04:05;;;;;;;169.68;68.15;;;;;;;7.64;88.36;100513.44;10488885;83;98836;-79
2021/04/01 00:19:09;;;;;;;84.80;37.48;;;;;;;7.36;89.30;100503.66;10510369;83;98648;-79
2021/04/01 00:34:14;;;;;;;59.35;27.55;;;;;;;7.22;90.79;100483.78;10508790;82;98502;-79
2021/04/01 00:49:18;;;;;;;127.20;50.33;;;;;;;7.09;93.56;100470.77;10515200;82;98622;-79
2021/04/01 01:04:22;;;;;;;135.22;57.90;;;;;;;6.73;93.87;100455.45;10518171;82;98648;-79
2021/04/01 01:19:27;;;;;;;125.35;52.10;;;;;;;6.68;94.04;100452.33;10487605;83;98655;-78
2021/04/01 01:34:35;;;;;;;118.72;53.70;;;;;;;6.58;95.94;100440.86;10346639;83;98701;-78
2021/04/01 01:49:42;;;;;;;157.40;69.23;;;;;;;6.38;95.42;100419.59;10146865;85;98679;-79
2021/04/01 02:04:46;;;;;;;;;;;;;;;6.37;96.27;100398.38;10119994;84;98693;-79
2021/04/01 02:19:57;;;;;;;108.57;49.45;;;;;;;6.06;95.76;100386.60;10126634;85;83543;-79
2021/04/01 02:35:01;;;;;;;109.35;47.80;;;;;;;5.99;96.49;100377.06;10206327;84;98657;-80
2021/04/01 02:50:09;;;;;;;89.85;40.75;;;;;;;5.80;97.09;100370.45;10321276;84;98983;-80
2021/04/01 03:05:14;;;;;;;87.27;40.28;;;;;;;5.84;98.02;100345.88;10341620;84;98526;-73
2021/04/01 03:20:19;;;;;;;66.28;30.92;;;;;;;5.76;98.09;100337.77;10340439;84;98525;-81
2021/04/01 03:35:24;;;;;;;58.93;29.27;;;;;;;5.66;99.15;100323.69;10237410;84;98542;-74
2021/04/01 15:15:20;;;;;;;57.38;32.90;;;;;;;13.76;82.08;100150.59;10887366;77;26556;-74
2021/04/01 15:30:25;;;;;;;26.07;15.13;;;;;;;13.13;86.64;100155.22;10514406;82;218047;-75
2021/04/01 15:45:29;;;;;;;60.38;34.50;;;;;;;12.28;93.87;100184.61;10610649;81;99138;-71
2021/04/01 16:00:34;;;;;;;43.17;20.37;;;;;;;11.50;98.22;100192.86;10457510;83;99164;-72
2021/04/01 16:15:41;;;;;;;45.52;23.52;;;;;;;10.71;100.00;100226.76;10591563;82;99045;-72
2021/04/01 16:30:46;;;;;;;71.33;27.27;;;;;;;10.31;100.00;100228.48;10543148;79;99213;-71
2021/04/01 16:45:50;;;;;;;55.50;30.40;;;;;;;9.96;100.00;100255.48;10340866;83;99130;-71
2021/04/01 17:00:57;;;;;;;73.33;35.08;;;;;;;9.56;100.00;100259.35;10202942;84;98989;-76
2021/04/01 17:16:04;;;;;;;43.33;26.20;;;;;;;9.29;100.00;100291.64;10468712;82;99006;-74
2021/04/01 17:31:08;;;;;;;40.50;19.80;;;;;;;9.00;100.00;100291.41;10449734;82;98813;-74
2021/04/01 17:46:13;;;;;;;105.87;40.35;;;;;;;8.49;100.00;100317.20;10243108;84;99024;-74
2021/04/01 18:01:22;;;;;;;27.73;13.58;;;;;;;8.03;100.00;100350.80;10330268;83;99222;-74
2021/04/01 18:31:50;;;;;;;146.65;53.70;;;;;;;6.98;100.00;100355.45;10441878;82;99006;-74
2021/04/01 18:47:02;;;;;;;211.87;64.90;;;;;;;7.06;100.00;100424.03;10468521;83;99044;-73
2021/04/01 19:02:07;;;;;;;100.97;37.75;;;;;;;6.75;100.00;100453.55;10466349;81;99176;-73
2021/04/01 19:32:38;;;;;;;27.90;11.83;;;;;;;6.40;100.00;100462.48;10269462;84;98898;-73
2021/04/01 19:47:43;;;;;;;30.82;12.78;;;;;;;6.33;100.00;100484.22;10214927;85;98783;-73
2021/04/01 20:02:48;;;;;;;28.27;9.18;;;;;;;6.29;100.00;100497.09;10222593;85;98733;-74
2021/04/01 20:17:53;;;;;;;26.75;9.58;;;;;;;6.05;100.00;100492.56;10444378;83;98707;-74
2021/04/01 20:32:58;;;;;;;16.70;7.22;;;;;;;6.29;100.00;100505.72;10557744;82;97669;-74
2021/04/01 20:48:05;;;;;;;12.33;5.35;;;;;;;6.29;100.00;100512.23;10573425;83;98559;-74
2021/04/01 21:03:11;;;;;;;5.72;3.40;;;;;;;5.93;100.00;100514.19;10515095;80;98568;-73
2021/04/01 21:18:19;;;;;;;6.92;4.17;;;;;;;6.14;100.00;100520.61;10492326;82;98540;-73
2021/04/01 21:33:26;;;;;;;12.78;6.47;;;;;;;5.73;100.00;100522.80;10451220;84;98922;-73
2021/04/01 21:48:32;;;;;;;13.70;6.05;;;;;;;5.61;100.00;100555.66;10434087;84;98569;-73
2021/04/01 22:03:37;;;;;;;10.63;3.80;;;;;;;5.63;100.00;100571.99;10431633;83;98455;-73
2021/04/01 22:18:42;;;;;;;12.93;6.70;;;;;;;5.73;100.00;100557.95;10449498;83;98620;-73
2021/04/01 22:33:50;;;;;;;12.82;5.42;;;;;;;5.55;100.00;100565.62;10388901;84;98477;-73
2021/04/01 22:48:55;;;;;;;16.60;7.22;;;;;;;5.09;100.00;100579.20;10329973;85;98592;-73
2021/04/01 23:03:59;;;;;;;14.73;7.25;;;;;;;4.76;100.00;100588.08;10706507;82;98531;-73
2021/04/01 23:19:04;;;;;;;14.98;7.15;;;;;;;4.56;100.00;100607.92;10709092;81;98449;-73
2021/04/01 23:34:08;;;;;;;7.58;5.42;;;;;;;4.46;100.00;100615.39;10587384;82;99518;-73
2021/04/01 23:49:15;;;;;;;16.50;6.35;;;;;;;4.50;100.00;100626.01;10926877;80;98310;-73
